sensor_id;sensor_type;location;lat;lon;timestamp;P1;durP1;ratioP1;P2;durP2;ratioP2
6223;SDS011;3145;42.726;23.342;2023-11-19T00:00:58;9.57;;;8.87;;
6223;SDS011;3145;42.726;23.342;2023-11-19T00:03:25;11.73;;;9.80;;
6223;SDS011;3145;42.726;23.342;2023-11-19T00:05:52;14.93;;;13.63;;
6223;SDS011;3145;42.726;23.342;2023-11-19T00:08:20;17.23;;;15.57;;
6223;SDS011;3145;42.726;23.342;2023-11-19T00:10:46;20.23;;;18.13;;
6223;SDS011;3145;42.726;23.342;2023-11-19T00:13:13;17.57;;;15.73;;
6223;SDS011;3145;42.726;23.342;2023-11-19T00:15:41;10.57;;;9.67;;
6223;SDS011;3145;42.726;23.342;2023-11-19T00:18:08;10.63;;;9.53;;
6223;SDS011;3145;42.726;23.342;2023-11-19T00:20:34;8.77;;;8.17;;
6223;SDS011;3145;42.726;23.342;2023-11-19T00:23:01;7.93;;;7.43;;
6223;SDS011;3145;42.726;23.342;2023-11-19T00:25:30;6.50;;;6.17;;
6223;SDS011;3145;42.726;23.342;2023-11-19T00:27:56;7.97;;;7.47;;
6223;SDS011;3145;42.726;23.342;2023-11-19T00:30:24;10.10;;;9.10;;
6223;SDS011;3145;42.726;23.342;2023-11-19T00:32:51;10.50;;;9.80;;
6223;SDS011;3145;42.726;23.342;2023-11-19T00:35:18;9.17;;;8.40;;
6223;SDS011;3145;42.726;23.342;2023-11-19T00:37:45;16.27;;;14.97;;
6223;SDS011;3145;42.726;23.342;2023-11-19T00:40:12;12.47;;;11.57;;
6223;SDS011;3145;42.726;23.342;2023-11-19T00:42:42;10.10;;;9.40;;
6223;SDS011;3145;42.726;23.342;2023-11-19T00:45:09;10.60;;;9.90;;
6223;SDS011;3145;42.726;23.342;2023-11-19T00:47:37;10.30;;;9.40;;
6223;SDS011;3145;42.726;23.342;2023-11-19T00:50:04;8.73;;;8.23;;
6223;SDS011;3145;42.726;23.342;2023-11-19T00:52:34;12.00;;;11.10;;
6223;SDS011;3145;42.726;23.342;2023-11-19T00:55:01;12.67;;;11.67;;
6223;SDS011;3145;42.726;23.342;2023-11-19T00:57:29;12.57;;;11.53;;
6223;SDS011;3145;42.726;23.342;2023-11-19T00:59:59;12.53;;;11.50;;
6223;SDS011;3145;42.726;23.342;2023-11-19T01:02:25;13.97;;;12.73;;
6223;SDS011;3145;42.726;23.342;2023-11-19T01:04:52;11.87;;;10.87;;
6223;SDS011;3145;42.726;23.342;2023-11-19T01:07:21;13.60;;;12.23;;
6223;SDS011;3145;42.726;23.342;2023-11-19T01:09:49;11.80;;;10.90;;
6223;SDS011;3145;42.726;23.342;2023-11-19T01:12:16;13.93;;;12.90;;
6223;SDS011;3145;42.726;23.342;2023-11-19T01:14:42;13.17;;;12.17;;
6223;SDS011;3145;42.726;23.342;2023-11-19T01:17:10;11.70;;;10.90;;
6223;SDS011;3145;42.726;23.342;2023-11-19T01:19:37;13.23;;;12.23;;
6223;SDS011;3145;42.726;23.342;2023-11-19T01:22:04;12.47;;;11.47;;
6223;SDS011;3145;42.726;23.342;2023-11-19T01:24:30;24.00;;;18.33;;
6223;SDS011;3145;42.726;23.342;2023-11-19T01:26:57;11.57;;;10.67;;
6223;SDS011;3145;42.726;23.342;2023-11-19T01:29:25;12.27;;;11.17;;
6223;SDS011;3145;42.726;23.342;2023-11-19T01:31:51;14.53;;;13.27;;
6223;SDS011;3145;42.726;23.342;2023-11-19T01:34:19;16.00;;;14.60;;
6223;SDS011;3145;42.726;23.342;2023-11-19T01:36:46;14.33;;;13.00;;
6223;SDS011;3145;42.726;23.342;2023-11-19T01:39:14;13.90;;;12.80;;
6223;SDS011;3145;42.726;23.342;2023-11-19T01:41:42;17.97;;;16.13;;
6223;SDS011;3145;42.726;23.342;2023-11-19T01:44:09;17.93;;;16.43;;
6223;SDS011;3145;42.726;23.342;2023-11-19T01:46:37;11.50;;;10.60;;
6223;SDS011;3145;42.726;23.342;2023-11-19T01:49:04;10.07;;;9.47;;
6223;SDS011;3145;42.726;23.342;2023-11-19T01:51:33;11.40;;;10.67;;
6223;SDS011;3145;42.726;23.342;2023-11-19T01:54:00;8.70;;;8.20;;
6223;SDS011;3145;42.726;23.342;2023-11-19T01:56:28;11.37;;;10.57;;
6223;SDS011;3145;42.726;23.342;2023-11-19T01:58:55;10.37;;;9.47;;
6223;SDS011;3145;42.726;23.342;2023-11-19T02:01:23;14.53;;;13.33;;
6223;SDS011;3145;42.726;23.342;2023-11-19T02:03:50;11.10;;;10.20;;
6223;SDS011;3145;42.726;23.342;2023-11-19T02:06:18;7.03;;;6.63;;
6223;SDS011;3145;42.726;23.342;2023-11-19T02:08:46;10.10;;;9.50;;
6223;SDS011;3145;42.726;23.342;2023-11-19T02:11:12;10.00;;;9.40;;
6223;SDS011;3145;42.726;23.342;2023-11-19T02:13:39;7.30;;;6.90;;
6223;SDS011;3145;42.726;23.342;2023-11-19T02:16:08;7.00;;;6.60;;
6223;SDS011;3145;42.726;23.342;2023-11-19T02:18:36;6.63;;;6.23;;
6223;SDS011;3145;42.726;23.342;2023-11-19T02:21:03;7.80;;;7.30;;
6223;SDS011;3145;42.726;23.342;2023-11-19T02:23:31;6.40;;;6.00;;
6223;SDS011;3145;42.726;23.342;2023-11-19T02:26:01;7.00;;;6.60;;
6223;SDS011;3145;42.726;23.342;2023-11-19T02:28:33;6.70;;;6.30;;
6223;SDS011;3145;42.726;23.342;2023-11-19T02:31:03;7.53;;;7.03;;
6223;SDS011;3145;42.726;23.342;2023-11-19T02:33:34;7.50;;;7.00;;
6223;SDS011;3145;42.726;23.342;2023-11-19T02:36:01;12.50;;;8.90;;
6223;SDS011;3145;42.726;23.342;2023-11-19T02:38:28;11.03;;;10.23;;
6223;SDS011;3145;42.726;23.342;2023-11-19T02:40:56;10.90;;;10.10;;
6223;SDS011;3145;42.726;23.342;2023-11-19T02:43:22;13.40;;;12.30;;
6223;SDS011;3145;42.726;23.342;2023-11-19T02:45:50;14.70;;;13.50;;
6223;SDS011;3145;42.726;23.342;2023-11-19T02:48:20;10.83;;;10.03;;
6223;SDS011;3145;42.726;23.342;2023-11-19T02:50:47;10.07;;;9.33;;
6223;SDS011;3145;42.726;23.342;2023-11-19T02:53:14;8.83;;;8.23;;
6223;SDS011;3145;42.726;23.342;2023-11-19T02:55:41;8.30;;;7.80;;
6223;SDS011;3145;42.726;23.342;2023-11-19T02:58:13;9.80;;;9.17;;
6223;SDS011;3145;42.726;23.342;2023-11-19T03:00:48;7.80;;;7.20;;
6223;SDS011;3145;42.726;23.342;2023-11-19T03:03:23;7.47;;;6.97;;
6223;SDS011;3145;42.726;23.342;2023-11-19T03:05:53;10.30;;;9.50;;
6223;SDS011;3145;42.726;23.342;2023-11-19T03:08:20;8.93;;;8.33;;
6223;SDS011;3145;42.726;23.342;2023-11-19T03:10:47;8.80;;;8.20;;
6223;SDS011;3145;42.726;23.342;2023-11-19T03:13:15;9.47;;;8.87;;
6223;SDS011;3145;42.726;23.342;2023-11-19T03:15:42;8.67;;;7.97;;
6223;SDS011;3145;42.726;23.342;2023-11-19T03:18:09;12.43;;;11.53;;
6223;SDS011;3145;42.726;23.342;2023-11-19T03:20:37;9.70;;;8.90;;
6223;SDS011;3145;42.726;23.342;2023-11-19T03:23:04;10.83;;;10.10;;
6223;SDS011;3145;42.726;23.342;2023-11-19T03:25:31;11.77;;;10.87;;
6223;SDS011;3145;42.726;23.342;2023-11-19T03:27:59;10.07;;;9.40;;
6223;SDS011;3145;42.726;23.342;2023-11-19T03:30:27;12.00;;;11.10;;
6223;SDS011;3145;42.726;23.342;2023-11-19T03:32:54;9.60;;;8.90;;
6223;SDS011;3145;42.726;23.342;2023-11-19T03:35:21;10.70;;;10.00;;
6223;SDS011;3145;42.726;23.342;2023-11-19T03:37:50;10.17;;;9.47;;
6223;SDS011;3145;42.726;23.342;2023-11-19T03:40:17;12.60;;;11.60;;
6223;SDS011;3145;42.726;23.342;2023-11-19T03:42:45;13.50;;;12.37;;
6223;SDS011;3145;42.726;23.342;2023-11-19T03:45:12;11.40;;;10.60;;
6223;SDS011;3145;42.726;23.342;2023-11-19T03:47:39;8.10;;;7.57;;
6223;SDS011;3145;42.726;23.342;2023-11-19T03:50:06;7.53;;;7.03;;
6223;SDS011;3145;42.726;23.342;2023-11-19T03:52:34;11.13;;;10.33;;
6223;SDS011;3145;42.726;23.342;2023-11-19T03:55:02;13.07;;;12.07;;
6223;SDS011;3145;42.726;23.342;2023-11-19T03:57:30;8.13;;;7.63;;
6223;SDS011;3145;42.726;23.342;2023-11-19T03:59:56;6.87;;;6.47;;
6223;SDS011;3145;42.726;23.342;2023-11-19T04:02:24;7.10;;;6.60;;
6223;SDS011;3145;42.726;23.342;2023-11-19T04:04:53;6.73;;;6.33;;
6223;SDS011;3145;42.726;23.342;2023-11-19T04:07:20;6.80;;;6.40;;
6223;SDS011;3145;42.726;23.342;2023-11-19T04:09:47;7.27;;;6.87;;
6223;SDS011;3145;42.726;23.342;2023-11-19T04:12:15;9.23;;;8.47;;
6223;SDS011;3145;42.726;23.342;2023-11-19T04:14:41;8.07;;;7.47;;
6223;SDS011;3145;42.726;23.342;2023-11-19T04:17:09;10.00;;;7.20;;
6223;SDS011;3145;42.726;23.342;2023-11-19T04:19:36;8.17;;;7.47;;
6223;SDS011;3145;42.726;23.342;2023-11-19T04:22:03;8.17;;;7.67;;
6223;SDS011;3145;42.726;23.342;2023-11-19T04:24:30;7.03;;;6.63;;
6223;SDS011;3145;42.726;23.342;2023-11-19T04:26:56;6.97;;;6.57;;
6223;SDS011;3145;42.726;23.342;2023-11-19T04:29:24;7.20;;;6.70;;
6223;SDS011;3145;42.726;23.342;2023-11-19T04:31:51;7.87;;;7.27;;
6223;SDS011;3145;42.726;23.342;2023-11-19T04:34:18;7.63;;;7.17;;
6223;SDS011;3145;42.726;23.342;2023-11-19T04:36:44;8.23;;;7.63;;
6223;SDS011;3145;42.726;23.342;2023-11-19T04:39:10;8.13;;;7.53;;
6223;SDS011;3145;42.726;23.342;2023-11-19T04:41:45;7.73;;;7.17;;
6223;SDS011;3145;42.726;23.342;2023-11-19T04:44:13;10.80;;;10.03;;
6223;SDS011;3145;42.726;23.342;2023-11-19T04:46:42;7.73;;;7.17;;
6223;SDS011;3145;42.726;23.342;2023-11-19T04:49:09;9.23;;;8.63;;
6223;SDS011;3145;42.726;23.342;2023-11-19T04:51:37;7.43;;;7.00;;
6223;SDS011;3145;42.726;23.342;2023-11-19T04:54:05;7.70;;;7.10;;
6223;SDS011;3145;42.726;23.342;2023-11-19T04:56:32;10.67;;;9.87;;
6223;SDS011;3145;42.726;23.342;2023-11-19T04:58:58;9.77;;;9.07;;
6223;SDS011;3145;42.726;23.342;2023-11-19T05:01:25;9.10;;;8.40;;
6223;SDS011;3145;42.726;23.342;2023-11-19T05:03:53;14.07;;;12.73;;
6223;SDS011;3145;42.726;23.342;2023-11-19T05:06:20;9.17;;;8.40;;
6223;SDS011;3145;42.726;23.342;2023-11-19T05:08:46;11.80;;;10.73;;
6223;SDS011;3145;42.726;23.342;2023-11-19T05:11:13;9.80;;;9.10;;
6223;SDS011;3145;42.726;23.342;2023-11-19T05:13:43;8.43;;;7.93;;
6223;SDS011;3145;42.726;23.342;2023-11-19T05:16:10;8.10;;;7.53;;
6223;SDS011;3145;42.726;23.342;2023-11-19T05:18:39;10.70;;;9.90;;
6223;SDS011;3145;42.726;23.342;2023-11-19T05:21:07;10.27;;;9.23;;
6223;SDS011;3145;42.726;23.342;2023-11-19T05:23:34;7.83;;;7.30;;
6223;SDS011;3145;42.726;23.342;2023-11-19T05:26:01;7.97;;;7.53;;
6223;SDS011;3145;42.726;23.342;2023-11-19T05:28:28;7.77;;;7.27;;
6223;SDS011;3145;42.726;23.342;2023-11-19T05:30:54;8.77;;;8.27;;
6223;SDS011;3145;42.726;23.342;2023-11-19T05:33:21;7.70;;;7.27;;
6223;SDS011;3145;42.726;23.342;2023-11-19T05:35:48;7.77;;;7.17;;
6223;SDS011;3145;42.726;23.342;2023-11-19T05:38:16;7.70;;;7.10;;
6223;SDS011;3145;42.726;23.342;2023-11-19T05:40:42;7.57;;;7.07;;
6223;SDS011;3145;42.726;23.342;2023-11-19T05:43:09;7.33;;;6.80;;
6223;SDS011;3145;42.726;23.342;2023-11-19T05:45:36;8.17;;;7.57;;
6223;SDS011;3145;42.726;23.342;2023-11-19T05:48:02;13.13;;;11.83;;
6223;SDS011;3145;42.726;23.342;2023-11-19T05:50:29;14.07;;;11.30;;
6223;SDS011;3145;42.726;23.342;2023-11-19T05:52:56;10.27;;;9.27;;
6223;SDS011;3145;42.726;23.342;2023-11-19T05:55:24;8.67;;;7.97;;
6223;SDS011;3145;42.726;23.342;2023-11-19T05:57:53;8.63;;;7.93;;
6223;SDS011;3145;42.726;23.342;2023-11-19T06:00:19;8.17;;;7.50;;
6223;SDS011;3145;42.726;23.342;2023-11-19T06:02:46;8.57;;;7.87;;
6223;SDS011;3145;42.726;23.342;2023-11-19T06:05:13;12.00;;;8.47;;
6223;SDS011;3145;42.726;23.342;2023-11-19T06:07:40;9.87;;;9.03;;
6223;SDS011;3145;42.726;23.342;2023-11-19T06:10:07;8.63;;;8.03;;
6223;SDS011;3145;42.726;23.342;2023-11-19T06:12:36;11.70;;;10.80;;
6223;SDS011;3145;42.726;23.342;2023-11-19T06:15:06;9.90;;;9.00;;
6223;SDS011;3145;42.726;23.342;2023-11-19T06:17:34;9.17;;;8.47;;
6223;SDS011;3145;42.726;23.342;2023-11-19T06:20:01;8.40;;;7.83;;
6223;SDS011;3145;42.726;23.342;2023-11-19T06:22:29;8.33;;;7.70;;
6223;SDS011;3145;42.726;23.342;2023-11-19T06:24:56;9.60;;;8.87;;
6223;SDS011;3145;42.726;23.342;2023-11-19T06:27:23;8.23;;;7.53;;
6223;SDS011;3145;42.726;23.342;2023-11-19T06:29:51;10.30;;;9.60;;
6223;SDS011;3145;42.726;23.342;2023-11-19T06:32:18;11.30;;;10.40;;
6223;SDS011;3145;42.726;23.342;2023-11-19T06:34:45;8.80;;;8.00;;
6223;SDS011;3145;42.726;23.342;2023-11-19T06:37:11;9.73;;;8.97;;
6223;SDS011;3145;42.726;23.342;2023-11-19T06:39:38;9.93;;;9.23;;
6223;SDS011;3145;42.726;23.342;2023-11-19T06:42:05;9.53;;;8.93;;
6223;SDS011;3145;42.726;23.342;2023-11-19T06:44:32;15.90;;;14.33;;
6223;SDS011;3145;42.726;23.342;2023-11-19T06:47:00;13.73;;;12.53;;
6223;SDS011;3145;42.726;23.342;2023-11-19T06:49:27;10.53;;;9.70;;
6223;SDS011;3145;42.726;23.342;2023-11-19T06:51:54;10.13;;;9.43;;
6223;SDS011;3145;42.726;23.342;2023-11-19T06:54:21;8.87;;;8.27;;
6223;SDS011;3145;42.726;23.342;2023-11-19T06:56:48;8.37;;;7.87;;
6223;SDS011;3145;42.726;23.342;2023-11-19T06:59:15;9.47;;;8.87;;
6223;SDS011;3145;42.726;23.342;2023-11-19T07:01:42;11.57;;;10.63;;
6223;SDS011;3145;42.726;23.342;2023-11-19T07:04:11;13.33;;;10.73;;
6223;SDS011;3145;42.726;23.342;2023-11-19T07:06:38;10.37;;;9.37;;
6223;SDS011;3145;42.726;23.342;2023-11-19T07:09:06;9.60;;;8.80;;
6223;SDS011;3145;42.726;23.342;2023-11-19T07:11:35;11.13;;;10.27;;
6223;SDS011;3145;42.726;23.342;2023-11-19T07:14:04;7.57;;;7.07;;
6223;SDS011;3145;42.726;23.342;2023-11-19T07:16:31;9.40;;;8.70;;
6223;SDS011;3145;42.726;23.342;2023-11-19T07:18:59;10.67;;;9.87;;
6223;SDS011;3145;42.726;23.342;2023-11-19T07:21:27;8.90;;;8.30;;
6223;SDS011;3145;42.726;23.342;2023-11-19T07:23:54;12.33;;;11.17;;
6223;SDS011;3145;42.726;23.342;2023-11-19T07:26:21;13.87;;;9.83;;
6223;SDS011;3145;42.726;23.342;2023-11-19T07:28:48;9.60;;;9.00;;
6223;SDS011;3145;42.726;23.342;2023-11-19T07:31:15;10.47;;;9.67;;
6223;SDS011;3145;42.726;23.342;2023-11-19T07:33:43;16.50;;;14.80;;
6223;SDS011;3145;42.726;23.342;2023-11-19T07:36:10;17.03;;;15.20;;
6223;SDS011;3145;42.726;23.342;2023-11-19T07:38:38;18.10;;;16.40;;
6223;SDS011;3145;42.726;23.342;2023-11-19T07:41:05;10.70;;;9.80;;
6223;SDS011;3145;42.726;23.342;2023-11-19T07:43:34;10.63;;;9.60;;
6223;SDS011;3145;42.726;23.342;2023-11-19T07:46:00;9.17;;;8.57;;
6223;SDS011;3145;42.726;23.342;2023-11-19T07:48:29;10.17;;;9.13;;
6223;SDS011;3145;42.726;23.342;2023-11-19T07:50:55;11.70;;;10.00;;
6223;SDS011;3145;42.726;23.342;2023-11-19T07:53:22;11.50;;;10.60;;
6223;SDS011;3145;42.726;23.342;2023-11-19T07:55:50;10.60;;;9.60;;
6223;SDS011;3145;42.726;23.342;2023-11-19T07:58:17;9.20;;;8.50;;
6223;SDS011;3145;42.726;23.342;2023-11-19T08:00:43;8.20;;;7.43;;
6223;SDS011;3145;42.726;23.342;2023-11-19T08:03:10;7.83;;;7.33;;
6223;SDS011;3145;42.726;23.342;2023-11-19T08:05:37;8.90;;;8.20;;
6223;SDS011;3145;42.726;23.342;2023-11-19T08:08:04;8.10;;;7.60;;
6223;SDS011;3145;42.726;23.342;2023-11-19T08:10:32;8.90;;;8.30;;
6223;SDS011;3145;42.726;23.342;2023-11-19T08:13:00;8.97;;;8.27;;
6223;SDS011;3145;42.726;23.342;2023-11-19T08:15:27;9.03;;;8.33;;
6223;SDS011;3145;42.726;23.342;2023-11-19T08:17:54;8.70;;;8.10;;
6223;SDS011;3145;42.726;23.342;2023-11-19T08:20:21;8.87;;;8.00;;
6223;SDS011;3145;42.726;23.342;2023-11-19T08:22:48;8.03;;;7.47;;
6223;SDS011;3145;42.726;23.342;2023-11-19T08:25:15;9.70;;;9.00;;
6223;SDS011;3145;42.726;23.342;2023-11-19T08:27:42;11.73;;;10.73;;
6223;SDS011;3145;42.726;23.342;2023-11-19T08:30:10;12.03;;;10.90;;
6223;SDS011;3145;42.726;23.342;2023-11-19T08:32:38;22.17;;;17.93;;
6223;SDS011;3145;42.726;23.342;2023-11-19T08:35:05;12.07;;;10.97;;
6223;SDS011;3145;42.726;23.342;2023-11-19T08:37:32;12.80;;;11.70;;
6223;SDS011;3145;42.726;23.342;2023-11-19T08:39:58;10.33;;;9.43;;
6223;SDS011;3145;42.726;23.342;2023-11-19T08:42:26;9.13;;;8.43;;
6223;SDS011;3145;42.726;23.342;2023-11-19T08:44:52;9.43;;;8.70;;
6223;SDS011;3145;42.726;23.342;2023-11-19T08:47:21;9.37;;;8.67;;
6223;SDS011;3145;42.726;23.342;2023-11-19T08:49:50;7.93;;;7.33;;
6223;SDS011;3145;42.726;23.342;2023-11-19T08:52:18;8.30;;;7.67;;
6223;SDS011;3145;42.726;23.342;2023-11-19T08:54:44;8.47;;;7.83;;
6223;SDS011;3145;42.726;23.342;2023-11-19T08:57:11;8.43;;;7.83;;
6223;SDS011;3145;42.726;23.342;2023-11-19T08:59:38;8.70;;;8.00;;
6223;SDS011;3145;42.726;23.342;2023-11-19T09:02:05;8.63;;;8.03;;
6223;SDS011;3145;42.726;23.342;2023-11-19T09:04:33;9.03;;;8.20;;
6223;SDS011;3145;42.726;23.342;2023-11-19T09:07:01;7.47;;;6.87;;
6223;SDS011;3145;42.726;23.342;2023-11-19T09:09:28;7.63;;;7.03;;
6223;SDS011;3145;42.726;23.342;2023-11-19T09:11:55;9.80;;;9.00;;
6223;SDS011;3145;42.726;23.342;2023-11-19T09:14:21;8.43;;;7.83;;
6223;SDS011;3145;42.726;23.342;2023-11-19T09:16:50;9.33;;;8.53;;
6223;SDS011;3145;42.726;23.342;2023-11-19T09:19:17;8.47;;;7.77;;
6223;SDS011;3145;42.726;23.342;2023-11-19T09:21:45;9.63;;;8.63;;
6223;SDS011;3145;42.726;23.342;2023-11-19T09:24:14;9.53;;;8.63;;
6223;SDS011;3145;42.726;23.342;2023-11-19T09:26:41;9.77;;;9.00;;
6223;SDS011;3145;42.726;23.342;2023-11-19T09:29:08;12.43;;;10.37;;
6223;SDS011;3145;42.726;23.342;2023-11-19T09:31:34;8.83;;;8.07;;
6223;SDS011;3145;42.726;23.342;2023-11-19T09:34:01;8.90;;;8.17;;
6223;SDS011;3145;42.726;23.342;2023-11-19T09:36:28;11.97;;;11.10;;
6223;SDS011;3145;42.726;23.342;2023-11-19T09:38:56;10.60;;;9.80;;
6223;SDS011;3145;42.726;23.342;2023-11-19T09:41:25;10.53;;;9.63;;
6223;SDS011;3145;42.726;23.342;2023-11-19T09:43:53;11.10;;;10.20;;
6223;SDS011;3145;42.726;23.342;2023-11-19T09:46:19;9.43;;;8.73;;
6223;SDS011;3145;42.726;23.342;2023-11-19T09:48:49;11.47;;;10.43;;
6223;SDS011;3145;42.726;23.342;2023-11-19T09:51:20;11.67;;;10.63;;
6223;SDS011;3145;42.726;23.342;2023-11-19T09:53:47;8.63;;;7.93;;
6223;SDS011;3145;42.726;23.342;2023-11-19T09:56:15;8.23;;;7.73;;
6223;SDS011;3145;42.726;23.342;2023-11-19T09:58:42;14.00;;;11.90;;
6223;SDS011;3145;42.726;23.342;2023-11-19T10:01:09;13.57;;;12.33;;
6223;SDS011;3145;42.726;23.342;2023-11-19T10:03:37;9.57;;;8.73;;
6223;SDS011;3145;42.726;23.342;2023-11-19T10:06:06;11.57;;;8.17;;
6223;SDS011;3145;42.726;23.342;2023-11-19T10:08:33;7.83;;;7.27;;
6223;SDS011;3145;42.726;23.342;2023-11-19T10:11:04;9.20;;;8.40;;
6223;SDS011;3145;42.726;23.342;2023-11-19T10:13:33;6.63;;;6.23;;
6223;SDS011;3145;42.726;23.342;2023-11-19T10:16:03;7.43;;;6.93;;
6223;SDS011;3145;42.726;23.342;2023-11-19T10:18:33;7.03;;;6.53;;
6223;SDS011;3145;42.726;23.342;2023-11-19T10:21:03;8.23;;;7.53;;
6223;SDS011;3145;42.726;23.342;2023-11-19T10:23:31;7.80;;;7.20;;
6223;SDS011;3145;42.726;23.342;2023-11-19T10:26:01;6.60;;;6.10;;
6223;SDS011;3145;42.726;23.342;2023-11-19T10:28:37;7.87;;;7.20;;
6223;SDS011;3145;42.726;23.342;2023-11-19T10:31:07;6.80;;;6.20;;
6223;SDS011;3145;42.726;23.342;2023-11-19T10:33:34;6.57;;;6.13;;
6223;SDS011;3145;42.726;23.342;2023-11-19T10:36:01;6.67;;;6.10;;
6223;SDS011;3145;42.726;23.342;2023-11-19T10:38:27;6.50;;;6.00;;
6223;SDS011;3145;42.726;23.342;2023-11-19T10:40:55;6.07;;;5.70;;
6223;SDS011;3145;42.726;23.342;2023-11-19T10:43:23;6.23;;;5.63;;
6223;SDS011;3145;42.726;23.342;2023-11-19T10:45:51;6.67;;;6.07;;
6223;SDS011;3145;42.726;23.342;2023-11-19T10:48:18;7.37;;;6.87;;
6223;SDS011;3145;42.726;23.342;2023-11-19T10:50:46;6.87;;;6.27;;
6223;SDS011;3145;42.726;23.342;2023-11-19T10:53:19;6.70;;;6.30;;
6223;SDS011;3145;42.726;23.342;2023-11-19T10:55:47;7.43;;;6.90;;
6223;SDS011;3145;42.726;23.342;2023-11-19T10:58:15;11.17;;;10.03;;
6223;SDS011;3145;42.726;23.342;2023-11-19T11:00:44;10.17;;;9.27;;
6223;SDS011;3145;42.726;23.342;2023-11-19T11:03:17;7.90;;;7.30;;
6223;SDS011;3145;42.726;23.342;2023-11-19T11:05:46;7.10;;;6.60;;
6223;SDS011;3145;42.726;23.342;2023-11-19T11:08:14;8.57;;;7.87;;
6223;SDS011;3145;42.726;23.342;2023-11-19T11:10:43;7.40;;;6.90;;
6223;SDS011;3145;42.726;23.342;2023-11-19T11:13:11;7.17;;;6.70;;
6223;SDS011;3145;42.726;23.342;2023-11-19T11:15:40;7.57;;;6.97;;
6223;SDS011;3145;42.726;23.342;2023-11-19T11:18:08;7.70;;;7.20;;
6223;SDS011;3145;42.726;23.342;2023-11-19T11:20:36;8.67;;;7.93;;
6223;SDS011;3145;42.726;23.342;2023-11-19T11:26:04;6.67;;;6.27;;
6223;SDS011;3145;42.726;23.342;2023-11-19T11:28:46;6.83;;;6.43;;
6223;SDS011;3145;42.726;23.342;2023-11-19T11:31:25;6.20;;;5.80;;
6223;SDS011;3145;42.726;23.342;2023-11-19T11:34:05;7.37;;;6.87;;
6223;SDS011;3145;42.726;23.342;2023-11-19T11:36:48;6.80;;;6.30;;
6223;SDS011;3145;42.726;23.342;2023-11-19T11:39:21;9.70;;;8.70;;
6223;SDS011;3145;42.726;23.342;2023-11-19T11:44:59;7.20;;;6.70;;
6223;SDS011;3145;42.726;23.342;2023-11-19T11:50:28;7.50;;;6.80;;
6223;SDS011;3145;42.726;23.342;2023-11-19T11:55:56;8.63;;;7.93;;
6223;SDS011;3145;42.726;23.342;2023-11-19T11:58:27;8.83;;;7.97;;
6223;SDS011;3145;42.726;23.342;2023-11-19T12:00:57;7.93;;;7.33;;
6223;SDS011;3145;42.726;23.342;2023-11-19T12:03:27;8.40;;;7.60;;
6223;SDS011;3145;42.726;23.342;2023-11-19T12:05:55;6.30;;;5.80;;
6223;SDS011;3145;42.726;23.342;2023-11-19T12:08:25;6.17;;;5.73;;
6223;SDS011;3145;42.726;23.342;2023-11-19T12:10:54;6.20;;;5.70;;
6223;SDS011;3145;42.726;23.342;2023-11-19T12:13:23;7.17;;;6.53;;
6223;SDS011;3145;42.726;23.342;2023-11-19T12:16:09;7.87;;;7.27;;
6223;SDS011;3145;42.726;23.342;2023-11-19T12:18:38;10.40;;;9.40;;
6223;SDS011;3145;42.726;23.342;2023-11-19T12:21:06;11.23;;;9.97;;
6223;SDS011;3145;42.726;23.342;2023-11-19T12:23:36;8.17;;;7.63;;
6223;SDS011;3145;42.726;23.342;2023-11-19T12:26:20;11.13;;;10.03;;
6223;SDS011;3145;42.726;23.342;2023-11-19T12:28:56;11.10;;;8.87;;
6223;SDS011;3145;42.726;23.342;2023-11-19T12:31:23;6.47;;;6.07;;
6223;SDS011;3145;42.726;23.342;2023-11-19T12:33:50;9.37;;;8.57;;
6223;SDS011;3145;42.726;23.342;2023-11-19T12:36:17;6.20;;;5.67;;
6223;SDS011;3145;42.726;23.342;2023-11-19T12:38:46;6.13;;;5.73;;
6223;SDS011;3145;42.726;23.342;2023-11-19T12:41:12;8.87;;;8.07;;
6223;SDS011;3145;42.726;23.342;2023-11-19T12:43:43;8.13;;;7.43;;
6223;SDS011;3145;42.726;23.342;2023-11-19T12:46:19;7.80;;;7.10;;
6223;SDS011;3145;42.726;23.342;2023-11-19T12:48:46;6.63;;;6.20;;
6223;SDS011;3145;42.726;23.342;2023-11-19T12:51:13;7.20;;;6.50;;
6223;SDS011;3145;42.726;23.342;2023-11-19T12:53:48;6.97;;;6.47;;
6223;SDS011;3145;42.726;23.342;2023-11-19T12:56:18;6.30;;;5.80;;
6223;SDS011;3145;42.726;23.342;2023-11-19T12:58:44;6.63;;;6.17;;
6223;SDS011;3145;42.726;23.342;2023-11-19T13:01:15;6.80;;;6.40;;
6223;SDS011;3145;42.726;23.342;2023-11-19T13:03:42;6.70;;;6.17;;
6223;SDS011;3145;42.726;23.342;2023-11-19T13:06:10;6.50;;;6.10;;
6223;SDS011;3145;42.726;23.342;2023-11-19T13:08:38;6.53;;;6.03;;
6223;SDS011;3145;42.726;23.342;2023-11-19T13:11:07;7.73;;;6.87;;
6223;SDS011;3145;42.726;23.342;2023-11-19T13:16:23;8.80;;;8.13;;
6223;SDS011;3145;42.726;23.342;2023-11-19T13:18:50;8.27;;;6.90;;
6223;SDS011;3145;42.726;23.342;2023-11-19T13:21:16;9.60;;;7.57;;
6223;SDS011;3145;42.726;23.342;2023-11-19T13:23:43;8.60;;;7.63;;
6223;SDS011;3145;42.726;23.342;2023-11-19T13:26:11;8.37;;;7.67;;
6223;SDS011;3145;42.726;23.342;2023-11-19T13:28:38;8.07;;;7.40;;
6223;SDS011;3145;42.726;23.342;2023-11-19T13:31:05;7.93;;;7.13;;
6223;SDS011;3145;42.726;23.342;2023-11-19T13:33:32;8.00;;;7.37;;
6223;SDS011;3145;42.726;23.342;2023-11-19T13:35:59;6.90;;;6.40;;
6223;SDS011;3145;42.726;23.342;2023-11-19T13:38:30;6.73;;;6.23;;
6223;SDS011;3145;42.726;23.342;2023-11-19T13:40:57;7.30;;;6.70;;
6223;SDS011;3145;42.726;23.342;2023-11-19T13:43:26;7.33;;;6.73;;
6223;SDS011;3145;42.726;23.342;2023-11-19T13:45:54;7.60;;;6.93;;
6223;SDS011;3145;42.726;23.342;2023-11-19T13:48:20;11.00;;;8.90;;
6223;SDS011;3145;42.726;23.342;2023-11-19T13:50:47;13.13;;;11.03;;
6223;SDS011;3145;42.726;23.342;2023-11-19T13:53:14;11.50;;;10.33;;
6223;SDS011;3145;42.726;23.342;2023-11-19T13:55:41;9.37;;;8.47;;
6223;SDS011;3145;42.726;23.342;2023-11-19T13:58:08;10.93;;;9.30;;
6223;SDS011;3145;42.726;23.342;2023-11-19T14:00:36;8.53;;;7.73;;
6223;SDS011;3145;42.726;23.342;2023-11-19T14:03:03;9.17;;;8.30;;
6223;SDS011;3145;42.726;23.342;2023-11-19T14:05:29;11.07;;;9.77;;
6223;SDS011;3145;42.726;23.342;2023-11-19T14:07:56;9.97;;;8.97;;
6223;SDS011;3145;42.726;23.342;2023-11-19T14:10:23;10.97;;;9.87;;
6223;SDS011;3145;42.726;23.342;2023-11-19T14:12:50;10.27;;;9.00;;
6223;SDS011;3145;42.726;23.342;2023-11-19T14:15:17;10.13;;;8.80;;
6223;SDS011;3145;42.726;23.342;2023-11-19T14:17:46;8.63;;;7.87;;
6223;SDS011;3145;42.726;23.342;2023-11-19T14:20:12;8.43;;;7.63;;
6223;SDS011;3145;42.726;23.342;2023-11-19T14:22:41;10.10;;;7.57;;
6223;SDS011;3145;42.726;23.342;2023-11-19T14:25:08;10.70;;;8.67;;
6223;SDS011;3145;42.726;23.342;2023-11-19T14:27:36;11.80;;;8.60;;
6223;SDS011;3145;42.726;23.342;2023-11-19T14:30:04;11.57;;;9.23;;
6223;SDS011;3145;42.726;23.342;2023-11-19T14:32:32;9.30;;;8.23;;
6223;SDS011;3145;42.726;23.342;2023-11-19T14:35:00;8.33;;;7.73;;
6223;SDS011;3145;42.726;23.342;2023-11-19T14:37:28;9.43;;;8.53;;
6223;SDS011;3145;42.726;23.342;2023-11-19T14:39:55;9.07;;;8.17;;
6223;SDS011;3145;42.726;23.342;2023-11-19T14:42:22;9.67;;;8.77;;
6223;SDS011;3145;42.726;23.342;2023-11-19T14:44:50;9.63;;;7.60;;
6223;SDS011;3145;42.726;23.342;2023-11-19T14:47:18;9.03;;;8.27;;
6223;SDS011;3145;42.726;23.342;2023-11-19T14:49:44;11.23;;;9.10;;
6223;SDS011;3145;42.726;23.342;2023-11-19T14:52:13;9.17;;;8.37;;
6223;SDS011;3145;42.726;23.342;2023-11-19T14:54:40;8.40;;;7.60;;
6223;SDS011;3145;42.726;23.342;2023-11-19T14:57:06;10.20;;;9.23;;
6223;SDS011;3145;42.726;23.342;2023-11-19T14:59:34;9.80;;;8.80;;
6223;SDS011;3145;42.726;23.342;2023-11-19T15:02:01;10.50;;;9.47;;
6223;SDS011;3145;42.726;23.342;2023-11-19T15:04:28;11.80;;;10.70;;
6223;SDS011;3145;42.726;23.342;2023-11-19T15:06:56;13.17;;;10.00;;
6223;SDS011;3145;42.726;23.342;2023-11-19T15:09:24;14.13;;;10.20;;
6223;SDS011;3145;42.726;23.342;2023-11-19T15:11:53;16.00;;;10.30;;